Terminal Aerodrome Forecast
Issued by NWS Omaha/Valley, NE

Home | Current Version | Previous Version | Text Only | Print | Product List | Glossary On
Versions: 1 2 3 4 5 6 7 8 9 10 11 12 13 14 15 16 17 18 19 20 21 22 23 24 25 26 27 28
000
FTUS43 KOAX 252320
TAFOMA
TAF
KOMA 252320Z 2600/2624 09005KT P6SM SKC
     FM260700 13007KT P6SM FEW040
     FM261200 14012KT 6SM BR FEW005 SCT015 WS010/15040KT
      TEMPO 2613/2616 4SM BR BKN015
     FM261700 14013KT P6SM SCT020=

USA.gov is the U.S. government's official web portal to all federal, state and local government web resources and services.